Burnstad, North Dakota
Current Conditions -  °F | °C
As of 11:55 PM on Saturday 25 Oct 2014 (Local Time) from K7L2 Reporting Station
Clear Clear  
Wind Chill: 38°   Ceiling: Unl
Heat Index: 45°   Visibility: 10mi
Dew Point: 32°   Wind: 13mph
Humidity: 61%   Direction: 130°SE
Pressure: 29.92"   Gusts: NA
Location:  46.2334°N, 99.6522°W
Report Text: K7L2 260455Z AUTO 13011KT 10SM CLR 07/00 A2992 RMK AO2 PWINO PNO
Loading
Personal Weather Stations






























Interactive Weather Map
Tropical Storm Tracking
New forecast layout! Learn more

10-Day Weather Forecast

Advertisements
Track Severe Weather on mobile